createdAt,value
2017-08-07T00:02:22.960Z,5.87
2017-08-07T00:04:50.460Z,5.60
2017-08-07T00:07:17.960Z,5.87
2017-08-07T00:09:45.442Z,6.30
2017-08-07T00:12:12.940Z,6.30
2017-08-07T00:14:40.428Z,6.07
2017-08-07T00:17:07.939Z,6.60
2017-08-07T00:19:35.428Z,6.10
2017-08-07T00:22:02.959Z,6.47
2017-08-07T00:24:30.440Z,6.53
2017-08-07T00:26:57.925Z,6.57
2017-08-07T00:29:25.436Z,6.03
2017-08-07T00:31:52.915Z,6.47
2017-08-07T00:34:20.408Z,6.70
2017-08-07T00:36:47.884Z,6.00
2017-08-07T00:39:15.400Z,6.50
2017-08-07T00:41:42.878Z,7.93
2017-08-07T00:44:10.388Z,6.73
2017-08-07T00:46:37.884Z,6.63
2017-08-07T00:49:05.412Z,7.57
2017-08-07T00:51:32.925Z,6.90
2017-08-07T00:54:00.442Z,6.50
2017-08-07T00:56:27.928Z,7.30
2017-08-07T00:58:56.191Z,7.63
2017-08-07T01:01:23.676Z,7.60
2017-08-07T01:03:51.195Z,7.53
2017-08-07T01:06:18.681Z,6.63
2017-08-07T01:08:46.159Z,7.00
2017-08-07T01:11:13.662Z,7.10
2017-08-07T01:13:41.147Z,6.80
2017-08-07T01:16:08.663Z,7.23
2017-08-07T01:18:36.927Z,7.67
2017-08-07T01:21:05.208Z,8.20
2017-08-07T01:23:32.698Z,7.00
2017-08-07T01:26:00.211Z,7.30
2017-08-07T01:28:27.698Z,7.40
2017-08-07T01:30:55.204Z,7.50
2017-08-07T01:33:22.688Z,7.70
2017-08-07T01:35:50.183Z,8.20
2017-08-07T01:38:17.660Z,8.10
2017-08-07T01:40:45.176Z,8.20
2017-08-07T01:43:12.665Z,7.97
2017-08-07T01:45:40.198Z,8.13
2017-08-07T01:48:07.676Z,8.50
2017-08-07T01:50:35.162Z,7.07
2017-08-07T01:53:02.663Z,7.23
2017-08-07T01:55:30.147Z,7.70
2017-08-07T01:57:57.651Z,7.20
2017-08-07T02:00:25.156Z,9.10
2017-08-07T02:02:52.668Z,8.23
2017-08-07T02:05:20.149Z,7.73
2017-08-07T02:07:47.645Z,8.60
2017-08-07T02:10:15.129Z,7.10
2017-08-07T02:12:42.637Z,8.87
2017-08-07T02:15:10.113Z,7.10
2017-08-07T02:17:37.691Z,8.27
2017-08-07T02:20:05.333Z,9.07
2017-08-07T02:39:53.133Z,8.77
2017-08-07T02:42:21.397Z,8.67
2017-08-07T02:44:48.908Z,8.80
2017-08-07T02:47:16.388Z,8.23
2017-08-07T02:49:43.910Z,8.97
2017-08-07T02:52:11.389Z,8.70
2017-08-07T02:54:38.924Z,8.70
2017-08-07T02:57:06.413Z,8.13
2017-08-07T02:59:33.946Z,7.87
2017-08-07T03:02:01.445Z,9.20
2017-08-07T03:04:29.741Z,8.53
2017-08-07T03:06:57.230Z,8.90
2017-08-07T03:09:24.720Z,9.30
2017-08-07T03:11:52.238Z,8.40
2017-08-07T03:14:20.496Z,8.97
2017-08-07T03:16:48.004Z,8.23
2017-08-07T03:19:15.498Z,8.80
2017-08-07T03:21:43.005Z,7.40
2017-08-07T03:24:10.496Z,8.17
2017-08-07T03:26:38.018Z,9.07
2017-08-07T03:29:05.512Z,8.70
2017-08-07T03:31:33.026Z,9.07
2017-08-07T03:34:00.520Z,9.20
2017-08-07T03:36:28.026Z,8.13
2017-08-07T03:38:55.525Z,8.80
2017-08-07T03:41:23.054Z,8.90
2017-08-07T03:43:50.557Z,8.30
2017-08-07T03:46:18.051Z,8.50
2017-08-07T03:48:45.541Z,10.23
2017-08-07T03:51:13.058Z,9.20
2017-08-07T03:53:40.549Z,9.30
2017-08-07T03:56:08.039Z,8.37
2017-08-07T03:58:35.573Z,8.53
2017-08-07T04:01:03.111Z,9.03
2017-08-07T04:03:30.620Z,8.47
2017-08-07T04:05:58.120Z,8.63
2017-08-07T04:08:25.649Z,8.90
2017-08-07T04:10:53.138Z,9.03
2017-08-07T04:13:20.657Z,9.40
2017-08-07T04:15:48.140Z,8.87
2017-08-07T04:18:15.653Z,8.63
2017-08-07T04:20:43.142Z,8.53
2017-08-07T04:23:11.409Z,8.33
2017-08-07T04:25:39.678Z,8.77
2017-08-07T04:28:07.184Z,7.80
2017-08-07T04:30:34.727Z,8.03
2017-08-07T04:33:02.211Z,7.57
2017-08-07T04:35:29.708Z,8.30
2017-08-07T04:37:57.236Z,7.87
2017-08-07T04:40:24.732Z,7.70
2017-08-07T04:42:52.238Z,7.93
2017-08-07T04:45:19.749Z,8.40
2017-08-07T04:47:47.263Z,8.57
2017-08-07T04:50:14.772Z,8.87
2017-08-07T04:52:43.090Z,8.70
2017-08-07T04:55:10.593Z,8.50
2017-08-07T04:57:38.076Z,7.90
2017-08-07T05:00:05.587Z,8.83
2017-08-07T05:02:33.088Z,7.80
2017-08-07T05:05:00.602Z,8.93
2017-08-07T05:07:28.102Z,8.57
2017-08-07T05:09:55.583Z,8.10
2017-08-07T05:12:23.096Z,8.50
2017-08-07T05:14:50.584Z,8.70
2017-08-07T05:17:18.100Z,24.67
2017-08-07T05:19:45.598Z,22.80
2017-08-07T05:22:13.116Z,11.63
2017-08-07T05:24:40.591Z,8.73
2017-08-07T05:27:08.137Z,8.90
2017-08-07T05:29:35.657Z,7.47
2017-08-07T05:32:03.159Z,17.60
2017-08-07T05:34:30.652Z,20.70
2017-08-07T05:36:58.160Z,18.67
2017-08-07T05:39:25.652Z,9.80
2017-08-07T05:41:53.160Z,9.50
2017-08-07T05:44:20.642Z,8.27
2017-08-07T05:46:48.920Z,8.80
2017-08-07T05:49:16.400Z,7.70
2017-08-07T05:51:43.907Z,7.60
2017-08-07T05:54:11.376Z,7.87
2017-08-07T05:56:38.863Z,8.23
2017-08-07T05:59:06.373Z,8.57
2017-08-07T06:01:33.877Z,8.33
2017-08-07T06:04:01.383Z,8.67
2017-08-07T06:06:28.867Z,7.70
2017-08-07T06:08:56.376Z,8.73
2017-08-07T06:11:23.869Z,7.60
2017-08-07T06:13:51.390Z,7.67
2017-08-07T06:16:18.871Z,7.83
2017-08-07T06:18:46.380Z,7.30
2017-08-07T06:21:13.856Z,7.37
2017-08-07T06:23:41.355Z,7.40
2017-08-07T06:26:08.836Z,7.10
2017-08-07T06:28:36.343Z,7.40
2017-08-07T06:31:03.824Z,6.27
2017-08-07T06:33:31.331Z,6.40
2017-08-07T06:35:58.815Z,5.90
2017-08-07T06:38:26.318Z,6.00
2017-08-07T06:40:53.804Z,5.70
2017-08-07T06:43:21.291Z,5.67
2017-08-07T06:45:48.792Z,7.23
2017-08-07T06:48:16.272Z,5.80
2017-08-07T06:50:43.771Z,6.63
2017-08-07T06:53:11.252Z,5.30
2017-08-07T06:55:38.754Z,6.17
2017-08-07T06:58:06.231Z,5.70
2017-08-07T07:00:33.744Z,6.37
2017-08-07T07:03:01.236Z,5.57
2017-08-07T07:05:28.752Z,6.23
2017-08-07T07:07:56.241Z,6.40
2017-08-07T07:10:24.513Z,6.63
2017-08-07T07:12:52.770Z,7.00
2017-08-07T07:15:20.264Z,6.40
2017-08-07T07:17:47.756Z,6.43
2017-08-07T07:20:15.260Z,6.13
2017-08-07T07:22:42.742Z,6.27
2017-08-07T07:25:11.007Z,6.27
2017-08-07T07:27:39.243Z,6.93
2017-08-07T07:30:06.728Z,11.50
2017-08-07T07:32:34.227Z,6.20
2017-08-07T07:35:01.712Z,5.77
2017-08-07T07:37:29.207Z,6.33
2017-08-07T07:39:56.692Z,5.43
2017-08-07T07:42:24.199Z,6.77
2017-08-07T07:44:51.676Z,6.00
2017-08-07T07:47:19.172Z,6.30
2017-08-07T07:49:46.647Z,6.20
2017-08-07T07:52:14.912Z,6.47
2017-08-07T07:54:42.392Z,6.27
2017-08-07T07:57:09.902Z,6.60
2017-08-07T07:59:37.417Z,7.73
2017-08-07T08:02:04.932Z,6.10
2017-08-07T08:04:32.411Z,5.70
2017-08-07T08:07:00.689Z,5.97
2017-08-07T08:09:28.185Z,5.73
2017-08-07T08:11:55.704Z,6.03
2017-08-07T08:14:23.194Z,5.30
2017-08-07T08:16:50.677Z,5.70
2017-08-07T08:19:18.184Z,5.97
2017-08-07T08:21:46.427Z,5.63
2017-08-07T08:24:13.951Z,6.07
2017-08-07T08:26:41.447Z,5.43
2017-08-07T08:29:08.961Z,6.43
2017-08-07T08:31:36.445Z,5.53
2017-08-07T08:34:03.939Z,5.47
2017-08-07T08:36:31.428Z,5.10
2017-08-07T08:38:58.944Z,5.50
2017-08-07T08:41:26.433Z,5.80
2017-08-07T08:43:53.949Z,5.37
2017-08-07T08:46:21.446Z,5.27
2017-08-07T08:48:48.949Z,5.07
2017-08-07T08:51:16.432Z,4.70
2017-08-07T08:53:43.936Z,4.77
2017-08-07T08:56:12.192Z,5.37
2017-08-07T08:58:39.706Z,5.20
2017-08-07T09:01:07.235Z,5.40
2017-08-07T09:03:35.492Z,4.80
2017-08-07T09:06:03.002Z,4.97
2017-08-07T09:08:30.494Z,4.77
2017-08-07T09:10:58.022Z,4.30
2017-08-07T09:13:26.280Z,4.30
2017-08-07T09:15:53.795Z,5.00
2017-08-07T09:18:21.296Z,4.70
2017-08-07T09:20:48.811Z,5.17
2017-08-07T09:23:17.063Z,4.77
2017-08-07T09:25:44.575Z,4.53
2017-08-07T09:28:12.067Z,4.23
2017-08-07T09:30:40.333Z,4.70
2017-08-07T09:33:08.582Z,4.53
2017-08-07T09:35:36.876Z,4.00
2017-08-07T09:38:04.365Z,4.10
2017-08-07T09:40:31.851Z,4.90
2017-08-07T09:42:59.351Z,4.30
2017-08-07T09:45:26.852Z,4.30
2017-08-07T09:47:54.352Z,4.47
2017-08-07T09:50:22.598Z,4.77
2017-08-07T09:52:50.132Z,4.37
2017-08-07T09:55:17.612Z,3.93
2017-08-07T09:57:45.111Z,4.70
2017-08-07T10:00:16.721Z,4.47
2017-08-07T10:02:44.586Z,4.10
2017-08-07T10:05:12.069Z,4.50
2017-08-07T10:07:40.348Z,4.17
2017-08-07T10:10:07.827Z,4.20
2017-08-07T10:12:35.319Z,3.90
2017-08-07T10:15:02.796Z,3.70
2017-08-07T10:17:30.316Z,3.57
2017-08-07T10:19:57.800Z,3.27
2017-08-07T10:22:25.288Z,3.23
2017-08-07T10:24:53.636Z,3.10
2017-08-07T10:27:21.131Z,3.20
2017-08-07T10:29:48.631Z,3.63
2017-08-07T10:32:16.108Z,3.10
2017-08-07T10:34:43.609Z,3.10
2017-08-07T10:37:11.096Z,3.50
2017-08-07T10:39:38.612Z,3.93
2017-08-07T10:42:06.855Z,3.60
2017-08-07T10:44:34.360Z,3.40
2017-08-07T10:47:01.854Z,3.80
2017-08-07T10:49:29.385Z,3.63
2017-08-07T10:51:57.644Z,3.20
2017-08-07T10:54:25.120Z,3.43
2017-08-07T10:56:52.619Z,2.80
2017-08-07T10:59:20.110Z,3.47
2017-08-07T11:01:47.608Z,3.00
2017-08-07T11:04:15.088Z,3.30
2017-08-07T11:06:42.649Z,3.10
2017-08-07T11:09:10.156Z,2.93
2017-08-07T11:11:37.688Z,2.70
2017-08-07T11:14:05.171Z,2.70
2017-08-07T11:16:32.690Z,2.87
2017-08-07T11:19:00.203Z,2.30
2017-08-07T11:21:28.516Z,2.67
2017-08-07T11:23:56.021Z,2.93
2017-08-07T11:26:24.313Z,2.63
2017-08-07T11:28:51.823Z,2.60
2017-08-07T11:31:19.390Z,2.93
2017-08-07T11:33:46.894Z,3.63
2017-08-07T11:36:14.423Z,2.90
2017-08-07T11:38:41.922Z,3.10
2017-08-07T11:41:09.520Z,3.40
2017-08-07T11:43:37.325Z,3.00
2017-08-07T11:46:04.820Z,2.83
2017-08-07T11:48:32.324Z,2.70
2017-08-07T11:50:59.804Z,2.83
2017-08-07T11:53:27.416Z,2.77
2017-08-07T11:55:54.901Z,2.60
2017-08-07T11:58:23.175Z,3.00
2017-08-07T12:00:51.427Z,2.60
2017-08-07T12:03:19.703Z,2.40
2017-08-07T12:05:47.958Z,2.10
2017-08-07T12:08:16.228Z,2.70
2017-08-07T12:10:43.722Z,2.70
2017-08-07T12:13:11.236Z,2.43
2017-08-07T12:15:38.725Z,3.10
2017-08-07T12:18:06.229Z,3.80
2017-08-07T12:20:33.724Z,2.80
2017-08-07T12:23:02.000Z,2.70
2017-08-07T12:25:29.481Z,2.30
2017-08-07T12:27:56.980Z,2.60
2017-08-07T12:30:25.244Z,2.53
2017-08-07T12:32:52.731Z,2.43
2017-08-07T12:35:20.242Z,2.90
2017-08-07T12:37:47.737Z,2.90
2017-08-07T12:40:15.235Z,2.40
2017-08-07T12:42:42.725Z,2.50
2017-08-07T12:45:10.248Z,2.57
2017-08-07T12:47:37.737Z,3.17
2017-08-07T12:50:05.250Z,2.43
2017-08-07T12:52:32.719Z,2.37
2017-08-07T12:55:00.228Z,2.60
2017-08-07T12:57:27.716Z,3.00
2017-08-07T12:59:55.217Z,2.90
2017-08-07T13:02:22.715Z,3.33
2017-08-07T13:04:50.193Z,2.60
2017-08-07T13:07:17.696Z,2.97
2017-08-07T13:09:45.171Z,3.10
2017-08-07T13:12:12.670Z,2.87
2017-08-07T13:14:40.143Z,2.53
2017-08-07T13:17:07.652Z,2.90
2017-08-07T13:19:35.131Z,2.67
2017-08-07T13:22:02.640Z,2.50
2017-08-07T13:24:30.122Z,2.80
2017-08-07T13:26:57.616Z,2.90
2017-08-07T13:29:25.101Z,2.50
2017-08-07T13:31:52.608Z,2.87
2017-08-07T13:34:20.097Z,2.90
2017-08-07T13:36:47.595Z,2.97
2017-08-07T13:39:15.077Z,2.73
2017-08-07T13:41:42.568Z,2.77
2017-08-07T13:44:10.081Z,2.80
2017-08-07T13:46:37.562Z,3.77
2017-08-07T13:49:05.078Z,2.90
2017-08-07T13:51:33.337Z,3.00
2017-08-07T13:54:01.624Z,3.40
2017-08-07T13:56:29.121Z,3.60
2017-08-07T13:58:56.648Z,3.73
2017-08-07T14:01:24.127Z,3.33
2017-08-07T14:03:52.396Z,3.40
2017-08-07T14:06:20.637Z,3.30
2017-08-07T14:08:48.127Z,4.00
2017-08-07T14:11:15.644Z,3.53
2017-08-07T14:13:43.116Z,3.70
2017-08-07T14:16:10.629Z,3.90
2017-08-07T14:18:38.122Z,3.10
2017-08-07T14:21:05.625Z,3.63
2017-08-07T14:23:33.109Z,3.13
2017-08-07T14:26:00.615Z,3.50
2017-08-07T14:28:28.105Z,3.43
2017-08-07T14:30:55.607Z,3.63
2017-08-07T14:33:23.088Z,3.73
2017-08-07T14:35:50.584Z,3.53
2017-08-07T14:38:18.068Z,3.27
2017-08-07T14:40:45.563Z,3.40
2017-08-07T14:43:13.045Z,3.40
2017-08-07T14:45:40.548Z,3.73
2017-08-07T14:48:08.024Z,3.17
2017-08-07T14:50:35.530Z,3.17
2017-08-07T14:53:03.028Z,3.20
2017-08-07T14:55:30.508Z,3.73
2017-08-07T14:57:58.784Z,3.67
2017-08-07T15:00:26.261Z,3.40
2017-08-07T15:02:53.767Z,3.43
2017-08-07T15:05:21.245Z,15.80
2017-08-07T15:07:48.749Z,4.53
2017-08-07T15:10:16.228Z,3.70
2017-08-07T15:12:43.740Z,3.43
2017-08-07T15:15:11.232Z,3.23
2017-08-07T15:17:38.757Z,2.97
2017-08-07T15:20:06.240Z,3.53
2017-08-07T15:22:34.512Z,3.17
2017-08-07T15:25:02.760Z,3.00
2017-08-07T15:27:31.041Z,2.90
2017-08-07T15:29:58.520Z,3.20
2017-08-07T15:32:26.024Z,2.90
2017-08-07T15:34:53.523Z,2.90
2017-08-07T15:37:21.015Z,3.10
2017-08-07T15:39:48.491Z,2.90
2017-08-07T15:42:16.008Z,2.50
2017-08-07T15:44:43.497Z,3.10
2017-08-07T15:47:10.988Z,2.80
2017-08-07T15:49:38.492Z,3.00
2017-08-07T15:52:06.745Z,2.27
2017-08-07T15:54:34.244Z,3.13
2017-08-07T15:57:01.720Z,2.80
2017-08-07T15:59:29.227Z,3.10
2017-08-07T16:01:56.716Z,3.50
2017-08-07T16:04:24.223Z,3.20
2017-08-07T16:06:51.716Z,3.10
2017-08-07T16:09:19.980Z,3.40
2017-08-07T16:11:48.227Z,3.47
2017-08-07T16:14:15.738Z,3.57
2017-08-07T16:16:43.215Z,4.50
2017-08-07T16:19:11.492Z,3.60
2017-08-07T16:21:39.753Z,4.60
2017-08-07T16:24:07.238Z,3.23
2017-08-07T16:26:34.740Z,3.60
2017-08-07T16:29:02.219Z,3.50
2017-08-07T16:31:29.712Z,3.30
2017-08-07T16:33:57.201Z,3.20
2017-08-07T16:36:24.712Z,3.43
2017-08-07T16:38:52.198Z,4.47
2017-08-07T16:41:19.741Z,3.77
2017-08-07T16:43:47.455Z,3.73
2017-08-07T16:46:14.951Z,3.50
2017-08-07T16:48:42.548Z,3.80
2017-08-07T16:51:10.064Z,3.40
2017-08-07T16:53:38.334Z,3.77
2017-08-07T16:56:05.847Z,3.80
2017-08-07T16:58:37.040Z,3.63
2017-08-07T17:01:04.566Z,3.70
2017-08-07T17:03:32.072Z,4.63
2017-08-07T17:06:00.352Z,3.50
2017-08-07T17:08:27.909Z,3.33
2017-08-07T17:10:55.487Z,3.70
2017-08-07T17:13:23.003Z,3.67
2017-08-07T17:15:50.538Z,3.30
2017-08-07T17:18:18.116Z,3.27
2017-08-07T17:20:45.633Z,4.03
2017-08-07T17:23:13.262Z,3.53
2017-08-07T17:25:40.752Z,4.70
2017-08-07T17:28:08.312Z,3.90
2017-08-07T17:30:35.829Z,5.00
2017-08-07T17:33:03.388Z,4.07
2017-08-07T17:35:30.876Z,3.63
2017-08-07T17:37:58.375Z,3.97
2017-08-07T17:40:25.957Z,5.93
2017-08-07T17:42:53.493Z,4.30
2017-08-07T17:45:21.007Z,4.20
2017-08-07T17:47:48.488Z,5.60
2017-08-07T17:50:16.037Z,4.50
2017-08-07T17:52:43.532Z,3.47
2017-08-07T17:55:11.111Z,4.30
2017-08-07T17:57:38.801Z,4.17
2017-08-07T18:00:06.316Z,4.00
2017-08-07T18:02:33.794Z,4.30
2017-08-07T18:05:01.299Z,4.83
2017-08-07T18:07:28.779Z,4.20
2017-08-07T18:09:56.393Z,4.00
2017-08-07T18:12:23.898Z,4.80
2017-08-07T18:14:52.220Z,4.30
2017-08-07T18:17:19.719Z,4.60
2017-08-07T18:19:47.254Z,4.17
2017-08-07T18:22:15.500Z,3.60
2017-08-07T18:24:43.007Z,5.50
2017-08-07T18:27:10.644Z,6.93
2017-08-07T18:29:38.310Z,8.47
2017-08-07T18:32:05.928Z,4.80
2017-08-07T18:34:33.568Z,4.33
2017-08-07T18:37:01.087Z,4.83
2017-08-07T18:39:29.408Z,5.43
2017-08-07T18:41:56.935Z,4.50
2017-08-07T18:44:24.421Z,4.50
2017-08-07T18:46:51.916Z,4.20
2017-08-07T18:49:19.405Z,4.23
2017-08-07T18:51:46.910Z,4.70
2017-08-07T18:54:14.437Z,4.70
2017-08-07T18:56:41.936Z,4.60
2017-08-07T18:59:09.437Z,4.30
2017-08-07T19:01:36.983Z,4.83
2017-08-07T19:04:04.497Z,4.87
2017-08-07T19:06:32.012Z,4.50
2017-08-07T19:08:59.590Z,5.00
2017-08-07T19:11:27.092Z,6.30
2017-08-07T19:13:55.347Z,5.47
2017-08-07T19:16:22.848Z,4.40
2017-08-07T19:18:50.341Z,4.43
2017-08-07T19:21:18.612Z,4.27
2017-08-07T19:23:46.852Z,4.77
2017-08-07T19:26:15.129Z,4.50
2017-08-07T19:28:43.526Z,4.80
2017-08-07T19:31:11.017Z,5.00
2017-08-07T19:33:38.528Z,6.47
2017-08-07T19:36:06.014Z,5.00
2017-08-07T19:38:33.517Z,4.80
2017-08-07T19:41:01.015Z,4.90
2017-08-07T19:43:28.532Z,42.07
2017-08-07T19:45:56.051Z,7.40
2017-08-07T19:48:23.563Z,8.93
2017-08-07T19:50:51.050Z,5.17
2017-08-07T19:53:18.553Z,5.80
2017-08-07T19:55:46.043Z,4.87
2017-08-07T19:58:13.546Z,4.40
2017-08-07T20:00:41.036Z,5.17
2017-08-07T20:03:09.324Z,5.30
2017-08-07T20:05:36.819Z,5.10
2017-08-07T20:08:04.293Z,4.47
2017-08-07T20:10:32.560Z,4.90
2017-08-07T20:13:00.809Z,5.13
2017-08-07T20:15:28.334Z,5.90
2017-08-07T20:17:55.820Z,6.00
2017-08-07T20:20:23.324Z,6.20
2017-08-07T20:22:51.580Z,6.80
2017-08-07T20:25:19.092Z,8.23
2017-08-07T20:27:46.580Z,8.93
2017-08-07T20:30:14.849Z,6.70
2017-08-07T20:32:42.336Z,5.70
2017-08-07T20:35:09.859Z,5.43
2017-08-07T20:37:37.332Z,5.33
2017-08-07T20:40:04.815Z,5.50
2017-08-07T20:42:33.080Z,5.50
2017-08-07T20:45:00.563Z,6.63
2017-08-07T20:47:28.060Z,5.40
2017-08-07T20:49:56.304Z,4.87
2017-08-07T20:52:24.574Z,6.20
2017-08-07T20:54:52.827Z,5.60
2017-08-07T20:57:21.106Z,5.27
2017-08-07T20:59:48.608Z,4.63
2017-08-07T21:02:16.110Z,5.30
2017-08-07T21:04:43.600Z,5.00
2017-08-07T21:07:11.107Z,4.40
2017-08-07T21:09:38.595Z,4.50
2017-08-07T21:12:06.113Z,4.80
2017-08-07T21:14:33.591Z,6.13
2017-08-07T21:17:01.840Z,4.63
2017-08-07T21:19:29.335Z,4.90
2017-08-07T21:21:56.825Z,4.87
2017-08-07T21:24:24.363Z,4.23
2017-08-07T21:26:51.848Z,4.03
2017-08-07T21:29:19.348Z,5.50
2017-08-07T21:31:46.831Z,4.20
2017-08-07T21:34:14.332Z,6.93
2017-08-07T21:36:41.820Z,5.80
2017-08-07T21:39:09.344Z,5.30
2017-08-07T21:41:37.598Z,4.30
2017-08-07T21:44:05.104Z,4.80
2017-08-07T21:46:32.582Z,4.30
2017-08-07T21:49:00.844Z,4.77
2017-08-07T21:51:28.323Z,4.63
2017-08-07T21:53:55.843Z,4.13
2017-08-07T21:56:23.327Z,5.03
2017-08-07T21:58:50.815Z,5.67
2017-08-07T22:01:19.084Z,5.10
2017-08-07T22:03:46.559Z,4.70
2017-08-07T22:06:14.053Z,4.90
2017-08-07T22:08:42.304Z,4.50
2017-08-07T22:11:09.808Z,4.70
2017-08-07T22:13:37.309Z,4.93
2017-08-07T22:16:04.802Z,4.90
2017-08-07T22:18:32.335Z,5.17
2017-08-07T22:20:59.840Z,4.40
2017-08-07T22:23:27.323Z,3.93
2017-08-07T22:25:54.848Z,4.60
2017-08-07T22:28:22.328Z,4.70
2017-08-07T22:30:49.820Z,5.30
2017-08-07T22:33:17.328Z,5.00
2017-08-07T22:35:44.799Z,5.30
2017-08-07T22:38:12.297Z,4.30
2017-08-07T22:40:39.787Z,4.93
2017-08-07T22:43:07.301Z,5.93
2017-08-07T22:45:35.559Z,5.03
2017-08-07T22:48:03.831Z,4.90
2017-08-07T22:50:31.316Z,5.03
2017-08-07T22:52:58.824Z,5.13
2017-08-07T22:55:26.318Z,5.47
2017-08-07T22:57:53.824Z,5.73
2017-08-07T23:00:21.336Z,4.70
2017-08-07T23:02:49.633Z,5.70
2017-08-07T23:05:17.111Z,5.27
2017-08-07T23:07:44.608Z,4.93
2017-08-07T23:10:12.122Z,4.93
2017-08-07T23:12:39.611Z,5.30
2017-08-07T23:15:07.125Z,5.00
2017-08-07T23:17:34.604Z,4.87
2017-08-07T23:20:02.120Z,5.43
2017-08-07T23:22:29.604Z,4.83
2017-08-07T23:24:57.115Z,4.80
2017-08-07T23:27:24.596Z,4.70
2017-08-07T23:29:52.091Z,5.17
2017-08-07T23:32:19.570Z,5.13
2017-08-07T23:34:47.083Z,6.30
2017-08-07T23:37:14.567Z,4.93
2017-08-07T23:39:42.099Z,5.03
2017-08-07T23:42:09.625Z,5.77
2017-08-07T23:44:37.112Z,5.30
2017-08-07T23:47:04.613Z,4.60
2017-08-07T23:49:32.105Z,5.17
2017-08-07T23:51:59.622Z,4.63
2017-08-07T23:54:27.112Z,5.30
2017-08-07T23:56:54.935Z,5.43
2017-08-07T23:59:23.195Z,4.80
